Time;durP1;ratioP1;P1;durP2;ratioP2;P2;SDS_P1;SDS_P2;PMS_P1;PMS_P2;Temp;Humidity;BMP_temperature;BMP_pressure;BME280_temperature;BME280_humidity;BME280_pressure;Samples;Min_cycle;Max_cycle;Signal;HPM_P1;HPM_P2
2023/08/22 00:00:51;;;;;;;;;29.00;27.75;;;;;28.92;76.01;101428.69;2118836;27;46568;-66
2023/08/22 00:01:52;;;;;;;;;45.50;37.50;;;;;28.90;76.31;101427.97;2122641;27;45835;-67
2023/08/22 00:02:52;;;;;;;;;32.00;29.50;;;;;28.90;76.23;101430.69;2122135;27;46403;-66
2023/08/22 00:03:56;;;;;;;;;10.75;10.25;;;;;28.91;76.43;101426.97;2122216;27;46772;-69
2023/08/22 00:04:56;;;;;;;;;1.75;1.75;;;;;28.89;76.32;101420.78;2122632;27;47083;-67
2023/08/22 00:05:57;;;;;;;;;5.67;5.67;;;;;28.89;76.57;101423.50;2122384;27;46470;-67
2023/08/22 00:06:57;;;;;;;;;6.33;5.33;;;;;28.90;76.75;101425.22;2110572;27;46331;-67
2023/08/22 00:07:59;;;;;;;;;4.00;4.00;;;;;28.90;76.91;101424.38;2113671;27;45888;-66
2023/08/22 00:09:03;;;;;;;;;21.40;20.20;;;;;28.88;76.74;101424.50;2121986;27;46477;-67
2023/08/22 00:10:03;;;;;;;;;30.00;28.00;;;;;28.88;76.87;101421.78;2113237;27;46278;-67
2023/08/22 00:11:04;;;;;;;;;23.00;21.00;;;;;28.87;76.96;101428.25;2113587;27;45751;-67
2023/08/22 00:12:05;;;;;;;;;10.50;10.25;;;;;28.87;77.18;101422.78;2123006;27;46624;-67
2023/08/22 00:13:06;;;;;;;;;6.75;6.75;;;;;28.86;77.10;101421.00;2103442;28;46564;-66
2023/08/22 00:14:06;;;;;;;;;11.75;11.75;;;;;28.86;77.46;101418.28;2104025;27;45750;-67
2023/08/22 00:15:09;;;;;;;;;11.25;11.00;;;;;28.84;77.28;101423.03;2122418;27;46584;-68
2023/08/22 00:16:10;;;;;;;;;5.00;4.75;;;;;28.85;77.26;101419.28;2113295;27;46437;-67
2023/08/22 00:17:10;;;;;;;;;5.67;5.67;;;;;28.86;77.61;101417.41;2115619;27;46188;-67
2023/08/22 00:18:11;;;;;;;;;4.33;3.00;;;;;28.83;77.46;101415.78;2121010;27;46750;-67
2023/08/22 00:19:11;;;;;;;;;4.00;4.00;;;;;28.84;77.31;101414.81;2122814;27;46563;-66
2023/08/22 00:20:12;;;;;;;;;6.67;6.67;;;;;28.83;77.08;101413.06;2116428;27;46345;-67
2023/08/22 00:21:12;;;;;;;;;4.00;4.00;;;;;28.82;77.04;101414.06;2117442;27;45336;-67
2023/08/22 00:22:13;;;;;;;;;3.00;1.00;;;;;28.81;77.17;101406.00;2122579;27;46838;-68
2023/08/22 00:23:13;;;;;;;;;1.00;1.00;;;;;28.78;77.16;101411.75;2122087;27;46663;-66
2023/08/22 00:24:13;;;;;;;;;1.00;1.00;;;;;28.76;77.46;101408.28;2122395;27;46246;-67
2023/08/22 00:25:14;;;;;;;;;2.00;2.00;;;;;28.75;77.85;101407.44;2122212;27;46299;-67
2023/08/22 00:26:14;;;;;;;;;3.67;2.33;;;;;28.75;77.68;101409.28;2119787;27;46976;-68
2023/08/22 00:27:15;;;;;;;;;3.33;3.00;;;;;28.73;77.83;101415.75;2120112;27;46631;-67
2023/08/22 00:28:15;;;;;;;;;1.00;1.00;;;;;28.73;77.78;101410.28;2121221;27;45596;-66
2023/08/22 00:29:15;;;;;;;;;2.67;2.67;;;;;28.76;78.04;101411.03;2113483;27;46155;-67
2023/08/22 00:30:16;;;;;;;;;3.67;3.67;;;;;28.75;77.93;101410.16;2113516;27;46057;-67
2023/08/22 00:31:16;;;;;;;;;1.67;1.67;;;;;28.72;77.83;101408.56;2122974;27;46820;-67
2023/08/22 00:32:17;;;;;;;;;1.00;1.00;;;;;28.73;77.88;101409.44;2113116;27;46467;-67
2023/08/22 00:33:17;;;;;;;;;1.67;1.67;;;;;28.75;78.03;101414.75;2113185;27;46291;-67
2023/08/22 00:34:17;;;;;;;;;4.33;4.33;;;;;28.73;78.15;101414.91;2120794;27;46234;-68
2023/08/22 00:35:18;;;;;;;;;42.25;36.25;;;;;28.76;77.97;101413.75;2122134;27;46769;-67
2023/08/22 00:36:18;;;;;;;;;22.50;20.25;;;;;28.78;77.95;101414.47;2122407;27;46621;-68
2023/08/22 00:37:19;;;;;;;;;18.50;18.00;;;;;28.72;77.87;101416.75;2122325;27;46757;-67
2023/08/22 00:38:19;;;;;;;;;10.50;10.25;;;;;28.73;77.79;101420.34;2119170;27;46807;-67
2023/08/22 00:39:20;;;;;;;;;6.00;6.00;;;;;28.77;78.15;101434.59;2122461;27;46047;-67
2023/08/22 00:40:20;;;;;;;;;4.00;4.00;;;;;28.74;78.03;101430.28;2122292;27;46726;-68
2023/08/22 00:41:21;;;;;;;;;1.00;1.00;;;;;28.72;78.27;101424.09;2122479;27;46599;-68
2023/08/22 00:42:21;;;;;;;;;1.00;1.00;;;;;28.70;78.09;101415.13;2122356;27;45621;-67
2023/08/22 00:43:22;;;;;;;;;1.00;1.00;;;;;28.66;78.27;101416.41;2122555;27;45838;-67
2023/08/22 00:44:22;;;;;;;;;2.33;2.33;;;;;28.66;78.09;101410.94;2110622;27;46445;-67
2023/08/22 00:45:22;;;;;;;;;8.33;6.00;;;;;28.66;78.45;101419.13;2105206;27;46832;-67
2023/08/22 00:46:24;;;;;;;;;8.50;8.00;;;;;28.63;78.54;101414.81;2122379;27;45890;-67
2023/08/22 00:47:24;;;;;;;;;4.00;4.00;;;;;28.62;78.71;101404.91;2122139;27;46430;-66
2023/08/22 00:48:25;;;;;;;;;2.33;2.33;;;;;28.63;78.54;101411.22;2122429;27;46652;-67
2023/08/22 00:49:26;;;;;;;;;5.67;5.67;;;;;28.60;78.55;101415.09;2121710;27;46713;-68
2023/08/22 00:50:26;;;;;;;;;3.00;3.00;;;;;28.61;78.74;101415.97;2120899;27;46209;-68
2023/08/22 00:51:27;;;;;;;;;8.67;8.67;;;;;28.60;78.69;101411.50;2114544;27;46190;-67
2023/08/22 00:52:27;;;;;;;;;3.00;3.00;;;;;28.60;78.90;101411.50;2121203;27;45066;-67
2023/08/22 00:53:27;;;;;;;;;2.00;1.67;;;;;28.59;78.50;101407.03;2120134;27;47155;-66
2023/08/22 00:54:29;;;;;;;;;1.33;1.33;;;;;28.57;78.79;101406.28;2121780;27;46441;-67
2023/08/22 00:55:30;;;;;;;;;3.00;1.75;;;;;28.54;78.90;101401.94;2122398;27;46101;-67
2023/08/22 00:56:30;;;;;;;;;4.00;2.33;;;;;28.55;78.75;101402.81;2122568;27;45878;-67
2023/08/22 00:57:30;;;;;;;;;1.00;1.00;;;;;28.54;79.14;101396.50;2122189;27;46826;-67
2023/08/22 00:58:31;;;;;;;;;4.00;2.00;;;;;28.53;79.57;101413.88;2122162;27;47021;-67
2023/08/22 00:59:32;;;;;;;;;4.67;4.67;;;;;28.51;79.50;101402.22;2119171;27;46064;-67
2023/08/22 01:00:32;;;;;;;;;2.00;1.67;;;;;28.49;79.80;101400.63;2121843;27;46555;-68
2023/08/22 01:01:32;;;;;;;;;2.00;2.00;;;;;28.47;79.28;101397.19;2122166;27;46951;-67
2023/08/22 01:02:33;;;;;;;;;4.33;3.33;;;;;28.41;79.58;101399.41;2122061;27;46385;-67
2023/08/22 01:03:37;;;;;;;;;3.00;3.00;;;;;28.45;79.66;101402.75;2122187;27;46635;-68
2023/08/22 01:04:37;;;;;;;;;4.50;4.00;;;;;28.45;79.51;101400.00;2121904;27;46885;-68
2023/08/22 01:05:42;;;;;;;;;5.67;3.00;;;;;28.47;79.74;101402.63;2121957;27;46303;-67
2023/08/22 01:06:54;;;;;;;;;1.00;1.00;;;;;28.47;79.60;101397.19;2121786;27;46861;-67
2023/08/22 01:07:59;;;;;;;;;3.75;1.50;;;;;28.47;79.60;101408.09;2121297;27;46864;-67
2023/08/22 01:09:06;;;;;;;;;5.00;5.00;;;;;28.49;79.69;101406.09;2122797;27;46373;-67
2023/08/22 01:10:19;;;;;;;;;6.75;5.75;;;;;28.48;79.59;101399.78;2121292;27;46490;-67
2023/08/22 01:11:34;;;;;;;;;19.20;17.20;;;;;28.46;79.57;101401.78;2112748;27;46562;-66
2023/08/22 01:13:02;;;;;;;;;15.80;15.40;;;;;28.47;79.48;101400.78;2114925;27;45344;-67
2023/08/22 01:14:07;;;;;;;;;8.00;6.75;;;;;28.46;79.64;101401.78;2121860;27;46374;-66
2023/08/22 01:15:20;;;;;;;;;3.75;3.75;;;;;28.44;79.70;101399.13;2121952;27;46616;-68
2023/08/22 01:16:21;;;;;;;;;4.00;3.00;;;;;28.43;79.43;101391.09;2112372;27;46383;-67
2023/08/22 01:17:22;;;;;;;;;1.33;1.33;;;;;28.43;79.72;101402.88;2112835;27;46517;-68
2023/08/22 01:18:24;;;;;;;;;3.00;2.00;;;;;28.43;79.74;101397.41;2121731;27;46600;-68
2023/08/22 01:19:25;;;;;;;;;2.25;2.25;;;;;28.41;79.75;101399.41;2122269;27;46541;-67
2023/08/22 01:20:26;;;;;;;;;2.00;2.00;;;;;28.41;79.70;101399.41;2121750;27;46171;-67
2023/08/22 01:21:28;;;;;;;;;1.75;1.00;;;;;28.40;79.72;101391.38;2116862;27;46268;-67
2023/08/22 01:22:28;;;;;;;;;1.00;0.50;;;;;28.38;79.61;101402.41;2121645;27;46582;-68
2023/08/22 01:23:28;;;;;;;;;1.33;1.33;;;;;28.31;80.07;101395.72;2121902;27;46320;-66
2023/08/22 01:24:28;;;;;;;;;3.00;1.33;;;;;28.30;80.04;101393.16;2122069;27;45106;-67
2023/08/22 01:25:29;;;;;;;;;1.00;1.00;;;;;28.30;80.08;101387.69;2122950;27;45521;-66
2023/08/22 01:26:30;;;;;;;;;1.00;1.00;;;;;28.28;80.32;101389.69;2124220;27;48483;-66
2023/08/22 01:28:00;;;;;;;;;1.00;1.00;;;;;28.25;80.14;101382.59;2114762;27;45894;-67
2023/08/22 01:29:10;;;;;;;;;1.25;1.25;;;;;28.21;80.60;101388.47;2087186;28;46319;-67
2023/08/22 01:30:18;;;;;;;;;7.00;7.00;;;;;28.20;80.84;101379.38;2083427;28;46855;-67
2023/08/22 01:31:25;;;;;;;;;15.50;13.75;;;;;28.20;80.54;101381.25;2086622;28;46828;-67
2023/08/22 01:32:32;;;;;;;;;8.00;8.00;;;;;28.19;80.59;101382.25;2087022;28;46973;-67
2023/08/22 01:33:41;;;;;;;;;3.25;2.75;;;;;28.19;81.04;101382.25;2087058;28;46486;-67
2023/08/22 01:34:43;;;;;;;;;3.25;3.25;;;;;28.17;81.04;101381.50;2087157;28;46951;-67
2023/08/22 01:35:48;;;;;;;;;3.00;3.00;;;;;28.18;81.21;101375.91;2087108;28;46529;-67
2023/08/22 01:36:53;;;;;;;;;2.50;1.00;;;;;28.22;80.94;101376.53;2086553;28;46576;-66
2023/08/22 01:37:54;;;;;;;;;1.00;1.00;;;;;28.22;81.09;101376.53;2087080;28;46782;-67
2023/08/22 01:38:56;;;;;;;;;0.25;0.25;;;;;28.20;81.16;101376.66;2086001;28;46502;-67
2023/08/22 01:39:59;;;;;;;;;1.00;1.00;;;;;28.20;80.82;101378.50;2086255;28;46871;-67
2023/08/22 01:41:00;;;;;;;;;0.00;0.00;;;;;28.24;80.93;101380.00;2086733;28;46709;-67
2023/08/22 01:42:01;;;;;;;;;0.00;0.00;;;;;28.24;80.63;101377.28;2079389;28;46953;-66
2023/08/22 01:43:02;;;;;;;;;0.25;0.25;;;;;28.24;80.31;101377.28;2077650;28;46715;-67
2023/08/22 01:44:05;;;;;;;;;0.00;0.00;;;;;28.22;80.60;101371.09;2085925;28;46940;-67
2023/08/22 01:45:06;;;;;;;;;0.00;0.00;;;;;28.20;80.69;101373.06;2086709;28;45112;-67
2023/08/22 01:46:07;;;;;;;;;1.33;1.33;;;;;28.18;80.70;101367.72;2087604;28;46216;-67
2023/08/22 01:47:07;;;;;;;;;0.67;0.67;;;;;28.11;80.90;101374.72;2078729;28;46368;-67
2023/08/22 01:48:07;;;;;;;;;1.00;1.00;;;;;28.14;80.95;101371.72;2078815;28;46867;-68
2023/08/22 01:49:08;;;;;;;;;1.00;1.00;;;;;28.12;81.08;101363.66;2087856;28;46969;-67
2023/08/22 01:50:08;;;;;;;;;1.00;1.00;;;;;28.14;81.33;101364.41;2087033;28;46483;-66
2023/08/22 01:51:09;;;;;;;;;0.67;0.67;;;;;28.13;81.02;101370.84;2078522;28;46301;-68
2023/08/22 01:52:09;;;;;;;;;2.67;1.67;;;;;28.12;81.20;101369.13;2078248;28;46283;-66
2023/08/22 01:53:09;;;;;;;;;0.67;0.67;;;;;28.11;81.04;101372.84;2081805;28;46620;-67
2023/08/22 01:54:10;;;;;;;;;0.00;0.00;;;;;28.11;81.43;101361.09;2088105;28;46345;-67
2023/08/22 01:55:12;;;;;;;;;0.00;0.00;;;;;28.12;81.53;101362.81;2086742;28;46373;-68
2023/08/22 01:56:12;;;;;;;;;0.75;0.75;;;;;28.11;81.51;101355.63;2085896;28;46814;-68
2023/08/22 01:57:12;;;;;;;;;0.00;0.00;;;;;28.12;81.90;101363.66;2086774;28;46648;-67
2023/08/22 01:58:14;;;;;;;;;1.00;1.00;;;;;28.11;81.67;101364.66;2086744;28;46700;-68
2023/08/22 01:59:14;;;;;;;;;0.75;0.75;;;;;28.12;81.50;101355.50;2080253;28;46549;-67
2023/08/22 02:00:15;;;;;;;;;1.00;1.00;;;;;28.11;81.77;101359.22;2086776;28;46470;-67
2023/08/22 02:01:15;;;;;;;;;1.00;0.00;;;;;28.11;82.20;101361.09;2087037;28;46625;-67
2023/08/22 02:02:15;;;;;;;;;1.00;1.00;;;;;28.13;81.81;101364.53;2087345;28;46706;-66
2023/08/22 02:03:16;;;;;;;;;0.00;0.00;;;;;28.12;81.77;101360.94;2087199;28;46503;-67
2023/08/22 02:04:16;;;;;;;;;1.00;1.00;;;;;28.13;81.83;101365.41;2086439;28;46792;-67
2023/08/22 02:05:16;;;;;;;;;1.00;0.00;;;;;28.15;81.94;101357.09;2087043;28;46283;-68
2023/08/22 02:06:17;;;;;;;;;0.00;0.00;;;;;28.14;81.76;101355.34;2094590;27;46918;-66
2023/08/22 02:07:17;;;;;;;;;0.00;0.00;;;;;28.14;81.61;101356.22;2117402;27;46588;-67
2023/08/22 02:08:17;;;;;;;;;1.00;0.00;;;;;28.13;82.18;101354.50;2121942;27;45473;-67
2023/08/22 02:09:18;;;;;;;;;1.00;0.67;;;;;28.12;81.92;101360.09;2121973;27;46300;-67
2023/08/22 02:10:18;;;;;;;;;1.00;1.00;;;;;28.07;82.08;101355.00;2121348;27;46372;-67
2023/08/22 02:11:19;;;;;;;;;1.00;1.00;;;;;28.08;82.29;101356.75;2120324;27;46511;-67
2023/08/22 02:12:19;;;;;;;;;0.00;0.00;;;;;28.09;82.21;101360.34;2120710;27;46328;-68
2023/08/22 02:13:20;;;;;;;;;1.00;1.00;;;;;28.06;82.34;101358.72;2120752;27;46964;-66
2023/08/22 02:14:22;;;;;;;;;0.00;0.00;;;;;28.05;82.22;101353.41;2121351;27;46789;-67
2023/08/22 02:15:22;;;;;;;;;0.00;0.00;;;;;28.04;82.16;101357.13;2121681;27;46431;-66
2023/08/22 02:16:23;;;;;;;;;1.00;1.00;;;;;28.02;82.25;101356.41;2112738;27;46884;-66
2023/08/22 02:17:23;;;;;;;;;1.33;1.33;;;;;28.01;82.83;101360.13;2115307;27;45890;-67
2023/08/22 02:18:24;;;;;;;;;0.00;0.00;;;;;28.02;82.96;101365.44;2122496;27;46272;-67
2023/08/22 02:19:24;;;;;;;;;0.00;0.00;;;;;28.02;82.37;101361.84;2121955;27;45755;-67
2023/08/22 02:20:25;;;;;;;;;2.00;1.00;;;;;28.01;82.56;101369.19;2118818;27;46667;-67
2023/08/22 02:21:25;;;;;;;;;2.00;2.00;;;;;27.98;82.57;101361.25;2121990;27;45519;-67
2023/08/22 02:22:25;;;;;;;;;0.00;0.00;;;;;27.98;82.65;101363.13;2112293;27;46820;-67
2023/08/22 02:23:26;;;;;;;;;1.00;1.00;;;;;27.99;82.83;101359.41;2112981;27;45115;-66
2023/08/22 02:24:27;;;;;;;;;1.00;1.00;;;;;28.00;82.93;101350.22;2121988;27;46556;-67
2023/08/22 02:25:27;;;;;;;;;0.00;0.00;;;;;27.99;82.93;101363.00;2121341;27;47185;-67
2023/08/22 02:26:29;;;;;;;;;2.00;0.67;;;;;28.02;83.01;101354.53;2119189;27;45708;-67
2023/08/22 02:27:29;;;;;;;;;0.00;0.00;;;;;28.02;83.03;101354.53;2119243;27;46824;-67
2023/08/22 02:28:30;;;;;;;;;3.00;1.33;;;;;28.03;82.63;101355.41;2118765;27;45712;-66
2023/08/22 02:29:31;;;;;;;;;1.67;1.67;;;;;28.07;82.93;101357.72;2121857;27;45539;-67
2023/08/22 02:30:31;;;;;;;;;0.00;0.00;;;;;28.03;83.32;101359.00;2121389;27;46868;-67
2023/08/22 02:31:31;;;;;;;;;1.00;1.00;;;;;28.01;83.10;101363.72;2112405;27;45144;-67
2023/08/22 02:32:32;;;;;;;;;1.00;1.00;;;;;28.00;83.41;101367.44;2120214;27;46425;-66
2023/08/22 02:33:32;;;;;;;;;2.00;1.00;;;;;27.98;83.35;101366.72;2121081;27;46458;-67
2023/08/22 02:34:32;;;;;;;;;0.67;0.67;;;;;28.00;83.57;101363.84;2112510;27;46198;-67
2023/08/22 02:35:32;;;;;;;;;0.00;0.00;;;;;27.99;83.43;101362.13;2104067;28;46896;-67
2023/08/22 02:36:33;;;;;;;;;1.00;1.00;;;;;27.99;83.71;101365.72;2103953;28;47060;-67
2023/08/22 02:37:33;;;;;;;;;0.00;0.00;;;;;27.98;83.86;101354.94;2121618;27;46038;-68
2023/08/22 02:38:34;;;;;;;;;0.33;0.00;;;;;27.98;83.69;101350.34;2117997;27;46905;-67
2023/08/22 02:39:34;;;;;;;;;0.67;0.67;;;;;27.98;83.71;101344.03;2121321;27;46501;-68
2023/08/22 02:40:34;;;;;;;;;2.00;1.00;;;;;27.96;83.03;101344.16;2120925;27;46386;-67
2023/08/22 02:41:35;;;;;;;;;1.67;1.67;;;;;27.96;83.52;101337.84;2121365;27;46919;-67
2023/08/22 02:42:36;;;;;;;;;1.33;1.33;;;;;27.95;83.26;101338.81;2121104;27;46153;-67
2023/08/22 02:43:36;;;;;;;;;0.75;0.75;;;;;27.94;83.35;101343.41;2117776;27;46455;-68
2023/08/22 02:44:36;;;;;;;;;0.67;0.67;;;;;27.94;83.50;101342.53;2118253;27;46655;-67
2023/08/22 02:45:37;;;;;;;;;1.00;0.00;;;;;27.92;83.48;101336.34;2120949;27;46958;-68
2023/08/22 02:46:37;;;;;;;;;1.00;1.00;;;;;27.89;83.42;101348.38;2112644;27;45207;-67
2023/08/22 02:47:38;;;;;;;;;1.00;1.00;;;;;27.88;83.76;101345.78;2104001;28;45693;-67
2023/08/22 02:48:39;;;;;;;;;0.00;0.00;;;;;27.86;84.13;101348.66;2112699;27;46628;-67
2023/08/22 02:49:39;;;;;;;;;0.00;0.00;;;;;27.80;83.56;101336.38;2121337;27;46472;-67
2023/08/22 02:50:39;;;;;;;;;1.00;1.00;;;;;27.80;84.22;101335.50;2118115;27;46361;-67
2023/08/22 02:51:40;;;;;;;;;1.00;1.00;;;;;27.78;84.38;101341.09;2117407;27;46762;-67
2023/08/22 02:52:40;;;;;;;;;3.00;2.33;;;;;27.78;84.32;101343.84;2114740;27;46239;-67
2023/08/22 02:53:40;;;;;;;;;0.00;0.00;;;;;27.78;84.53;101338.38;2118873;27;46290;-66
2023/08/22 02:54:41;;;;;;;;;1.33;0.00;;;;;27.77;84.78;101336.66;2116074;27;46543;-67
2023/08/22 02:55:41;;;;;;;;;1.00;1.00;;;;;27.76;84.72;101343.09;2120792;27;46521;-66
2023/08/22 02:56:42;;;;;;;;;1.00;1.00;;;;;27.74;84.47;101341.50;2121673;27;46254;-66
2023/08/22 02:57:42;;;;;;;;;1.00;1.00;;;;;27.74;85.15;101341.50;2121345;27;46768;-66
2023/08/22 02:58:42;;;;;;;;;1.00;1.00;;;;;27.74;85.20;101342.38;2121224;27;45926;-67
2023/08/22 02:59:43;;;;;;;;;1.67;0.67;;;;;27.75;85.33;101343.22;2112575;27;46392;-67
2023/08/22 03:00:45;;;;;;;;;0.00;0.00;;;;;27.75;85.20;101340.50;2112141;27;46143;-68
2023/08/22 03:01:46;;;;;;;;;1.50;1.50;;;;;27.76;85.29;101339.50;2121550;27;45939;-67
2023/08/22 03:02:46;;;;;;;;;2.00;2.00;;;;;27.76;85.40;101337.66;2121523;27;46214;-67
2023/08/22 03:03:50;;;;;;;;;2.00;2.00;;;;;27.79;85.47;101345.56;2121512;27;46401;-67
2023/08/22 03:04:50;;;;;;;;;1.25;1.25;;;;;27.78;85.46;101352.00;2111835;27;46563;-67
2023/08/22 03:05:51;;;;;;;;;2.00;1.00;;;;;27.78;85.29;101337.50;2104009;28;46871;-66
2023/08/22 03:06:52;;;;;;;;;0.00;0.00;;;;;27.78;85.30;101337.50;2110527;27;46670;-67
2023/08/22 03:07:52;;;;;;;;;1.67;1.67;;;;;27.78;85.69;101340.25;2109116;27;46492;-66
2023/08/22 03:08:52;;;;;;;;;1.67;1.67;;;;;27.78;85.66;101342.97;2112129;27;46367;-66
2023/08/22 03:09:53;;;;;;;;;0.00;0.00;;;;;27.76;85.46;101342.22;2113669;27;46641;-67
2023/08/22 03:10:59;;;;;;;;;2.00;2.00;;;;;27.77;85.90;101343.97;2106801;27;46920;-67
2023/08/22 03:11:59;;;;;;;;;1.75;1.75;;;;;27.74;85.87;101353.28;2117272;27;46572;-67
2023/08/22 03:12:59;;;;;;;;;1.00;1.00;;;;;27.74;85.94;101345.09;2119865;27;46255;-68
2023/08/22 03:14:00;;;;;;;;;0.33;0.33;;;;;27.74;85.29;101346.97;2110766;27;46337;-66
2023/08/22 03:15:02;;;;;;;;;1.00;1.00;;;;;27.72;85.81;101341.63;2106572;27;46238;-67
2023/08/22 03:16:02;;;;;;;;;2.00;2.00;;;;;27.71;85.74;101342.63;2112537;27;46785;-66
2023/08/22 03:17:02;;;;;;;;;2.00;1.00;;;;;27.72;86.01;101344.38;2121920;27;47048;-66
2023/08/22 03:18:03;;;;;;;;;1.33;1.33;;;;;27.72;86.08;101338.03;2123091;27;46664;-66
2023/08/22 03:19:03;;;;;;;;;2.00;1.67;;;;;27.72;86.02;101347.09;2122563;27;46016;-67
2023/08/22 03:20:05;;;;;;;;;2.33;1.33;;;;;27.73;86.24;101339.78;2122834;27;46226;-67
2023/08/22 03:21:05;;;;;;;;;1.25;1.25;;;;;27.73;85.99;101340.63;2102438;28;46146;-67
2023/08/22 03:22:05;;;;;;;;;0.33;0.00;;;;;27.71;86.12;101341.78;2104153;28;46625;-68
2023/08/22 03:23:06;;;;;;;;;1.00;1.00;;;;;27.70;86.06;101340.03;2123002;27;46398;-67
2023/08/22 03:24:06;;;;;;;;;1.00;1.00;;;;;27.71;86.43;101336.31;2123022;27;46677;-67
2023/08/22 03:25:07;;;;;;;;;1.33;1.00;;;;;27.69;86.23;101338.28;2123180;27;45690;-67
2023/08/22 03:26:10;;;;;;;;;2.00;2.00;;;;;27.69;86.13;101336.41;2112228;27;46637;-66
2023/08/22 03:27:11;;;;;;;;;1.25;1.25;;;;;27.68;86.30;101334.69;2111353;27;46732;-67
2023/08/22 03:28:11;;;;;;;;;0.67;0.67;;;;;27.68;86.25;101339.28;2122046;27;46356;-68
2023/08/22 03:29:11;;;;;;;;;2.00;2.00;;;;;27.64;86.02;101335.94;2123051;27;46787;-68
2023/08/22 03:30:12;;;;;;;;;0.00;0.00;;;;;27.63;86.31;101341.50;2118898;27;46675;-66
2023/08/22 03:31:14;;;;;;;;;1.00;0.00;;;;;27.63;86.27;101338.78;2122813;27;46702;-67
2023/08/22 03:32:14;;;;;;;;;0.75;0.75;;;;;27.61;86.53;101336.19;2121427;27;47025;-68
2023/08/22 03:33:14;;;;;;;;;1.00;1.00;;;;;27.61;86.82;101340.75;2121867;27;46206;-68
2023/08/22 03:34:15;;;;;;;;;2.00;2.00;;;;;27.59;87.06;101327.25;2122934;27;45833;-67
2023/08/22 03:35:16;;;;;;;;;2.00;2.00;;;;;27.59;87.16;101335.44;2116591;27;46419;-67
2023/08/22 03:36:16;;;;;;;;;2.00;2.00;;;;;27.58;87.01;101325.53;2121804;27;45101;-68
2023/08/22 03:37:16;;;;;;;;;2.00;2.00;;;;;27.56;87.00;101328.34;2123330;27;46735;-68
2023/08/22 03:38:17;;;;;;;;;0.00;0.00;;;;;27.57;87.35;101331.97;2123239;27;46289;-67
2023/08/22 03:39:18;;;;;;;;;2.00;2.00;;;;;27.57;87.93;101331.97;2123318;27;46007;-67
2023/08/22 03:40:18;;;;;;;;;2.33;2.33;;;;;27.57;87.67;101334.72;2122700;27;46738;-67
2023/08/22 03:41:18;;;;;;;;;1.00;1.00;;;;;27.58;87.61;101339.16;2122626;27;46789;-67
2023/08/22 03:42:19;;;;;;;;;3.00;2.33;;;;;27.58;87.63;101338.31;2122657;27;45819;-67
2023/08/22 03:43:19;;;;;;;;;2.00;2.00;;;;;27.58;88.09;101332.84;2116031;27;46502;-67
2023/08/22 03:44:19;;;;;;;;;0.00;0.00;;;;;27.59;87.98;101340.03;2121383;27;46289;-67
2023/08/22 03:45:20;;;;;;;;;1.00;1.00;;;;;27.56;87.47;101343.84;2122957;27;46864;-67
2023/08/22 03:46:20;;;;;;;;;0.00;0.00;;;;;27.58;87.85;101339.16;2122581;27;46615;-67
2023/08/22 03:47:20;;;;;;;;;2.33;1.33;;;;;27.58;87.66;101344.63;2122726;27;47097;-68
2023/08/22 03:48:21;;;;;;;;;2.00;2.00;;;;;27.57;87.93;101345.63;2122625;27;46684;-68
2023/08/22 03:49:21;;;;;;;;;1.00;1.00;;;;;27.57;87.66;101348.34;2119760;27;46433;-67
2023/08/22 03:50:21;;;;;;;;;3.00;1.33;;;;;27.57;87.53;101345.63;2121659;27;46479;-67
2023/08/22 03:51:22;;;;;;;;;2.00;2.00;;;;;27.56;87.85;101347.44;2121324;27;46661;-67
2023/08/22 03:52:22;;;;;;;;;2.67;2.00;;;;;27.55;87.97;101340.25;2122420;27;46426;-68
2023/08/22 03:53:23;;;;;;;;;1.33;1.33;;;;;27.53;88.47;101339.53;2122763;27;46624;-67
2023/08/22 03:54:23;;;;;;;;;2.00;2.00;;;;;27.56;88.02;101341.13;2117154;27;46619;-66
2023/08/22 03:55:23;;;;;;;;;2.67;2.67;;;;;27.53;88.10;101342.25;2122077;27;46439;-68
2023/08/22 03:56:24;;;;;;;;;1.00;1.00;;;;;27.56;88.47;101349.31;2113557;27;46223;-68
2023/08/22 03:57:24;;;;;;;;;0.67;0.67;;;;;27.56;87.97;101339.25;2113296;27;46559;-67
2023/08/22 03:58:24;;;;;;;;;0.67;0.67;;;;;27.55;88.18;101343.00;2122273;27;46413;-66
2023/08/22 03:59:25;;;;;;;;;2.00;2.00;;;;;27.56;88.65;101347.44;2122986;27;45964;-67
2023/08/22 04:00:26;;;;;;;;;2.00;2.00;;;;;27.56;87.90;101342.00;2122488;27;46327;-67
2023/08/22 04:01:26;;;;;;;;;0.25;0.25;;;;;27.56;88.26;101352.03;2123186;27;45682;-67
2023/08/22 04:02:27;;;;;;;;;2.00;1.00;;;;;27.56;88.85;101341.13;2122914;27;46367;-68
2023/08/22 04:03:27;;;;;;;;;1.00;1.00;;;;;27.55;88.64;101350.31;2122588;27;46477;-67
2023/08/22 04:04:28;;;;;;;;;2.00;2.00;;;;;27.53;88.28;101344.13;2122226;27;46262;-67
2023/08/22 04:05:30;;;;;;;;;1.75;1.75;;;;;27.56;88.35;101346.59;2122525;27;46393;-67
2023/08/22 04:06:30;;;;;;;;;2.00;2.00;;;;;27.56;88.30;101341.13;2122121;27;45493;-68
2023/08/22 04:07:31;;;;;;;;;1.67;1.67;;;;;27.58;88.06;101343.75;2121173;27;46711;-67
2023/08/22 04:08:31;;;;;;;;;1.67;1.67;;;;;27.55;88.16;101337.53;2120655;27;46627;-66
2023/08/22 04:09:31;;;;;;;;;2.00;2.00;;;;;27.56;88.04;101341.13;2113800;27;46559;-67
2023/08/22 04:10:32;;;;;;;;;2.33;2.33;;;;;27.58;88.71;101341.03;2120710;27;46146;-67
2023/08/22 04:11:32;;;;;;;;;3.00;3.00;;;;;27.57;88.30;101342.88;2122747;27;46144;-67
2023/08/22 04:12:32;;;;;;;;;1.00;1.00;;;;;27.58;88.25;101347.34;2122097;27;46773;-67
2023/08/22 04:13:33;;;;;;;;;2.67;2.67;;;;;27.56;88.09;101342.00;2122517;27;46483;-67
2023/08/22 04:14:33;;;;;;;;;2.00;2.00;;;;;27.55;88.27;101343.00;2122523;27;46561;-69
2023/08/22 04:15:35;;;;;;;;;3.00;1.67;;;;;27.56;88.60;101343.84;2122252;27;46464;-67
2023/08/22 04:16:36;;;;;;;;;0.75;0.75;;;;;27.55;88.55;101334.81;2120234;27;46632;-68
2023/08/22 04:17:38;;;;;;;;;3.00;2.33;;;;;27.61;88.18;101338.03;2122523;27;46354;-67
2023/08/22 04:18:38;;;;;;;;;2.50;2.50;;;;;27.60;88.28;101333.59;2122438;27;46967;-67
2023/08/22 04:19:39;;;;;;;;;1.00;0.67;;;;;27.55;88.24;101333.94;2120833;27;46177;-67
2023/08/22 04:20:40;;;;;;;;;3.00;2.00;;;;;27.52;88.52;101334.22;2120154;27;46824;-67
2023/08/22 04:21:40;;;;;;;;;2.00;2.00;;;;;27.52;88.77;101339.66;2119861;27;46365;-67
2023/08/22 04:22:41;;;;;;;;;2.00;2.00;;;;;27.52;88.37;101336.94;2122490;27;46267;-67
2023/08/22 04:23:41;;;;;;;;;1.00;1.00;;;;;27.50;88.98;101342.53;2121091;27;46382;-67
2023/08/22 04:24:42;;;;;;;;;2.00;2.00;;;;;27.51;88.80;101346.13;2122479;27;46300;-67
2023/08/22 04:25:42;;;;;;;;;2.00;2.00;;;;;27.50;88.71;101337.06;2122589;27;46551;-66
2023/08/22 04:26:42;;;;;;;;;1.00;1.00;;;;;27.51;89.26;101348.84;2122803;27;46586;-67
2023/08/22 04:27:43;;;;;;;;;4.00;2.00;;;;;27.51;88.88;101338.78;2122211;27;46824;-67
2023/08/22 04:28:43;;;;;;;;;2.00;2.00;;;;;27.52;88.61;101345.13;2122307;27;46596;-67
2023/08/22 04:29:43;;;;;;;;;1.00;1.00;;;;;27.51;89.12;101346.13;2120966;27;46674;-67
2023/08/22 04:30:44;;;;;;;;;2.00;2.00;;;;;27.51;88.71;101344.25;2122093;27;46179;-67
2023/08/22 04:31:44;;;;;;;;;3.00;3.00;;;;;27.53;88.49;101346.84;2116818;27;46473;-67
2023/08/22 04:32:44;;;;;;;;;1.00;1.00;;;;;27.52;88.60;101340.53;2118622;27;46487;-67
2023/08/22 04:33:45;;;;;;;;;3.33;3.33;;;;;27.51;88.80;101348.84;2122206;27;46460;-67
2023/08/22 04:34:45;;;;;;;;;1.33;1.33;;;;;27.52;88.77;101356.03;2119580;27;46310;-67
2023/08/22 04:35:46;;;;;;;;;2.33;2.00;;;;;27.51;88.62;101343.38;2107221;27;46533;-67
2023/08/22 04:36:46;;;;;;;;;3.00;2.00;;;;;27.51;89.16;101346.13;2109544;27;46148;-63
2023/08/22 04:37:46;;;;;;;;;1.00;1.00;;;;;27.48;89.16;101349.97;2114892;27;45811;-64
2023/08/22 04:38:49;;;;;;;;;1.00;1.00;;;;;27.47;89.28;101355.53;2114091;27;46306;-63
2023/08/22 04:39:49;;;;;;;;;2.00;2.00;;;;;27.42;88.99;101353.19;2115643;27;45978;-63
2023/08/22 04:40:50;;;;;;;;;2.00;2.00;;;;;27.38;89.49;101351.72;2111543;27;46338;-63
2023/08/22 04:41:50;;;;;;;;;3.00;3.00;;;;;27.39;89.85;101344.41;2106546;27;46921;-63
2023/08/22 04:42:51;;;;;;;;;3.00;3.00;;;;;27.37;89.65;101351.84;2120231;27;46724;-65
2023/08/22 04:43:51;;;;;;;;;3.00;3.00;;;;;27.34;89.55;101350.25;2122109;27;46375;-62
2023/08/22 04:44:51;;;;;;;;;2.00;2.00;;;;;27.33;89.94;101347.66;2121775;27;46276;-63